sensor_id;sensor_type;location;lat;lon;timestamp;P1;durP1;ratioP1;P2;durP2;ratioP2
20890;SDS011;10605;52.968;8.844;2023-09-08T00:01:56;7.10;;;6.57;;
20890;SDS011;10605;52.968;8.844;2023-09-08T00:04:22;7.18;;;6.65;;
20890;SDS011;10605;52.968;8.844;2023-09-08T00:06:49;6.72;;;6.22;;
20890;SDS011;10605;52.968;8.844;2023-09-08T00:09:14;8.63;;;6.07;;
20890;SDS011;10605;52.968;8.844;2023-09-08T00:11:40;6.93;;;6.07;;
20890;SDS011;10605;52.968;8.844;2023-09-08T00:14:06;7.53;;;6.03;;
20890;SDS011;10605;52.968;8.844;2023-09-08T00:16:32;7.32;;;6.50;;
20890;SDS011;10605;52.968;8.844;2023-09-08T00:18:58;6.97;;;6.38;;
20890;SDS011;10605;52.968;8.844;2023-09-08T00:21:24;7.18;;;6.57;;
20890;SDS011;10605;52.968;8.844;2023-09-08T00:23:50;7.43;;;6.82;;
20890;SDS011;10605;52.968;8.844;2023-09-08T00:26:17;7.22;;;6.63;;
20890;SDS011;10605;52.968;8.844;2023-09-08T00:28:42;8.02;;;7.22;;
20890;SDS011;10605;52.968;8.844;2023-09-08T00:31:08;7.38;;;6.57;;
20890;SDS011;10605;52.968;8.844;2023-09-08T00:33:34;7.60;;;6.90;;
20890;SDS011;10605;52.968;8.844;2023-09-08T00:35:59;7.30;;;6.70;;
20890;SDS011;10605;52.968;8.844;2023-09-08T00:38:25;7.20;;;6.70;;
20890;SDS011;10605;52.968;8.844;2023-09-08T00:40:51;7.85;;;6.28;;
20890;SDS011;10605;52.968;8.844;2023-09-08T00:43:17;10.15;;;6.63;;
20890;SDS011;10605;52.968;8.844;2023-09-08T00:45:43;6.88;;;6.28;;
20890;SDS011;10605;52.968;8.844;2023-09-08T00:48:11;7.47;;;6.25;;
20890;SDS011;10605;52.968;8.844;2023-09-08T00:50:37;6.25;;;5.75;;
20890;SDS011;10605;52.968;8.844;2023-09-08T00:53:04;6.88;;;6.28;;
20890;SDS011;10605;52.968;8.844;2023-09-08T00:55:31;6.68;;;6.20;;
20890;SDS011;10605;52.968;8.844;2023-09-08T00:57:57;9.65;;;6.78;;
20890;SDS011;10605;52.968;8.844;2023-09-08T01:00:27;9.73;;;6.60;;
20890;SDS011;10605;52.968;8.844;2023-09-08T01:02:53;7.20;;;6.32;;
20890;SDS011;10605;52.968;8.844;2023-09-08T01:05:19;6.80;;;6.20;;
20890;SDS011;10605;52.968;8.844;2023-09-08T01:07:45;7.32;;;6.72;;
20890;SDS011;10605;52.968;8.844;2023-09-08T01:10:13;8.35;;;7.47;;
20890;SDS011;10605;52.968;8.844;2023-09-08T01:12:39;8.15;;;6.30;;
20890;SDS011;10605;52.968;8.844;2023-09-08T01:15:05;9.82;;;6.70;;
20890;SDS011;10605;52.968;8.844;2023-09-08T01:17:32;7.53;;;6.50;;
20890;SDS011;10605;52.968;8.844;2023-09-08T01:20:05;6.93;;;6.32;;
20890;SDS011;10605;52.968;8.844;2023-09-08T01:27:52;7.30;;;6.60;;
20890;SDS011;10605;52.968;8.844;2023-09-08T01:30:20;7.60;;;6.88;;
20890;SDS011;10605;52.968;8.844;2023-09-08T01:32:48;7.38;;;6.68;;
20890;SDS011;10605;52.968;8.844;2023-09-08T01:35:14;7.78;;;7.15;;
20890;SDS011;10605;52.968;8.844;2023-09-08T01:37:41;10.15;;;6.57;;
20890;SDS011;10605;52.968;8.844;2023-09-08T01:40:09;7.47;;;6.68;;
20890;SDS011;10605;52.968;8.844;2023-09-08T01:42:36;7.20;;;6.60;;
20890;SDS011;10605;52.968;8.844;2023-09-08T01:45:05;9.25;;;6.55;;
20890;SDS011;10605;52.968;8.844;2023-09-08T01:47:32;8.00;;;7.40;;
20890;SDS011;10605;52.968;8.844;2023-09-08T01:49:58;8.55;;;7.47;;
20890;SDS011;10605;52.968;8.844;2023-09-08T01:52:24;7.72;;;6.63;;
20890;SDS011;10605;52.968;8.844;2023-09-08T01:54:50;7.53;;;6.80;;
20890;SDS011;10605;52.968;8.844;2023-09-08T01:57:16;7.75;;;6.97;;
20890;SDS011;10605;52.968;8.844;2023-09-08T01:59:42;7.45;;;6.75;;
20890;SDS011;10605;52.968;8.844;2023-09-08T02:02:09;7.32;;;6.82;;
20890;SDS011;10605;52.968;8.844;2023-09-08T02:04:38;7.80;;;6.95;;
20890;SDS011;10605;52.968;8.844;2023-09-08T02:07:04;8.20;;;7.50;;
20890;SDS011;10605;52.968;8.844;2023-09-08T02:09:31;8.05;;;7.25;;
20890;SDS011;10605;52.968;8.844;2023-09-08T02:11:57;7.75;;;7.05;;
20890;SDS011;10605;52.968;8.844;2023-09-08T02:14:23;7.68;;;7.07;;
20890;SDS011;10605;52.968;8.844;2023-09-08T02:16:49;7.90;;;7.32;;
20890;SDS011;10605;52.968;8.844;2023-09-08T02:19:14;8.80;;;7.63;;
20890;SDS011;10605;52.968;8.844;2023-09-08T02:21:40;7.70;;;7.00;;
20890;SDS011;10605;52.968;8.844;2023-09-08T02:24:06;7.85;;;7.15;;
20890;SDS011;10605;52.968;8.844;2023-09-08T02:26:32;7.53;;;6.93;;
20890;SDS011;10605;52.968;8.844;2023-09-08T02:28:59;7.78;;;7.15;;
20890;SDS011;10605;52.968;8.844;2023-09-08T02:31:26;9.48;;;7.90;;
20890;SDS011;10605;52.968;8.844;2023-09-08T02:33:52;7.82;;;7.22;;
20890;SDS011;10605;52.968;8.844;2023-09-08T02:36:18;9.82;;;8.20;;
20890;SDS011;10605;52.968;8.844;2023-09-08T02:38:51;8.88;;;8.07;;
20890;SDS011;10605;52.968;8.844;2023-09-08T02:41:17;10.35;;;7.68;;
20890;SDS011;10605;52.968;8.844;2023-09-08T02:43:42;8.95;;;8.15;;
20890;SDS011;10605;52.968;8.844;2023-09-08T02:46:08;8.15;;;7.45;;
20890;SDS011;10605;52.968;8.844;2023-09-08T02:48:34;9.13;;;7.60;;
20890;SDS011;10605;52.968;8.844;2023-09-08T02:51:00;8.35;;;7.75;;
20890;SDS011;10605;52.968;8.844;2023-09-08T02:53:26;8.27;;;7.57;;
20890;SDS011;10605;52.968;8.844;2023-09-08T02:55:53;10.23;;;8.13;;
20890;SDS011;10605;52.968;8.844;2023-09-08T02:58:20;9.05;;;7.78;;
20890;SDS011;10605;52.968;8.844;2023-09-08T03:00:45;8.90;;;8.10;;
20890;SDS011;10605;52.968;8.844;2023-09-08T03:03:11;10.85;;;9.20;;
20890;SDS011;10605;52.968;8.844;2023-09-08T03:05:36;9.00;;;8.20;;
20890;SDS011;10605;52.968;8.844;2023-09-08T03:08:02;9.23;;;8.50;;
20890;SDS011;10605;52.968;8.844;2023-09-08T03:10:28;8.90;;;8.15;;
20890;SDS011;10605;52.968;8.844;2023-09-08T03:12:54;8.65;;;7.95;;
20890;SDS011;10605;52.968;8.844;2023-09-08T03:15:20;10.82;;;8.85;;
20890;SDS011;10605;52.968;8.844;2023-09-08T03:17:46;9.30;;;8.60;;
20890;SDS011;10605;52.968;8.844;2023-09-08T03:20:12;11.68;;;8.35;;
20890;SDS011;10605;52.968;8.844;2023-09-08T03:22:38;9.40;;;8.50;;
20890;SDS011;10605;52.968;8.844;2023-09-08T03:25:04;9.52;;;8.82;;
20890;SDS011;10605;52.968;8.844;2023-09-08T03:27:30;9.77;;;8.65;;
20890;SDS011;10605;52.968;8.844;2023-09-08T03:29:56;12.70;;;8.50;;
20890;SDS011;10605;52.968;8.844;2023-09-08T03:32:22;9.45;;;8.45;;
20890;SDS011;10605;52.968;8.844;2023-09-08T03:34:47;9.52;;;8.75;;
20890;SDS011;10605;52.968;8.844;2023-09-08T03:37:13;10.13;;;9.23;;
20890;SDS011;10605;52.968;8.844;2023-09-08T03:39:40;11.30;;;8.82;;
20890;SDS011;10605;52.968;8.844;2023-09-08T03:42:06;8.93;;;8.23;;
20890;SDS011;10605;52.968;8.844;2023-09-08T03:44:31;9.77;;;8.80;;
20890;SDS011;10605;52.968;8.844;2023-09-08T03:46:57;9.48;;;8.73;;
20890;SDS011;10605;52.968;8.844;2023-09-08T03:49:23;9.82;;;8.82;;
20890;SDS011;10605;52.968;8.844;2023-09-08T03:51:48;9.77;;;8.95;;
20890;SDS011;10605;52.968;8.844;2023-09-08T03:54:14;9.27;;;8.57;;
20890;SDS011;10605;52.968;8.844;2023-09-08T03:56:40;11.25;;;9.50;;
20890;SDS011;10605;52.968;8.844;2023-09-08T03:59:05;9.63;;;8.75;;
20890;SDS011;10605;52.968;8.844;2023-09-08T04:01:31;9.30;;;8.63;;
20890;SDS011;10605;52.968;8.844;2023-09-08T04:03:56;10.25;;;9.25;;
20890;SDS011;10605;52.968;8.844;2023-09-08T04:06:22;10.82;;;9.75;;
20890;SDS011;10605;52.968;8.844;2023-09-08T04:08:49;10.68;;;9.77;;
20890;SDS011;10605;52.968;8.844;2023-09-08T04:11:15;11.02;;;10.02;;
20890;SDS011;10605;52.968;8.844;2023-09-08T04:13:40;11.75;;;10.23;;
20890;SDS011;10605;52.968;8.844;2023-09-08T04:16:06;12.25;;;10.90;;
20890;SDS011;10605;52.968;8.844;2023-09-08T04:18:31;11.38;;;10.25;;
20890;SDS011;10605;52.968;8.844;2023-09-08T04:20:57;11.50;;;9.38;;
20890;SDS011;10605;52.968;8.844;2023-09-08T04:23:23;10.13;;;9.23;;
20890;SDS011;10605;52.968;8.844;2023-09-08T04:25:48;9.70;;;9.00;;
20890;SDS011;10605;52.968;8.844;2023-09-08T04:28:14;11.00;;;10.10;;
20890;SDS011;10605;52.968;8.844;2023-09-08T04:30:39;10.95;;;9.85;;
20890;SDS011;10605;52.968;8.844;2023-09-08T04:33:05;14.93;;;10.70;;
20890;SDS011;10605;52.968;8.844;2023-09-08T04:35:31;11.48;;;10.48;;
20890;SDS011;10605;52.968;8.844;2023-09-08T04:37:57;11.30;;;10.30;;
20890;SDS011;10605;52.968;8.844;2023-09-08T04:40:22;12.30;;;10.40;;
20890;SDS011;10605;52.968;8.844;2023-09-08T04:42:48;11.35;;;10.23;;
20890;SDS011;10605;52.968;8.844;2023-09-08T04:45:13;10.63;;;9.77;;
20890;SDS011;10605;52.968;8.844;2023-09-08T04:47:39;11.55;;;10.45;;
20890;SDS011;10605;52.968;8.844;2023-09-08T04:50:05;10.90;;;10.00;;
20890;SDS011;10605;52.968;8.844;2023-09-08T04:52:31;14.55;;;10.85;;
20890;SDS011;10605;52.968;8.844;2023-09-08T04:54:56;15.60;;;11.10;;
20890;SDS011;10605;52.968;8.844;2023-09-08T04:57:22;14.55;;;10.27;;
20890;SDS011;10605;52.968;8.844;2023-09-08T04:59:48;11.90;;;10.52;;
20890;SDS011;10605;52.968;8.844;2023-09-08T05:02:14;12.18;;;10.98;;
20890;SDS011;10605;52.968;8.844;2023-09-08T05:04:40;11.30;;;10.30;;
20890;SDS011;10605;52.968;8.844;2023-09-08T05:07:05;11.68;;;10.55;;
20890;SDS011;10605;52.968;8.844;2023-09-08T05:09:31;12.13;;;11.02;;
20890;SDS011;10605;52.968;8.844;2023-09-08T05:11:58;11.82;;;10.70;;
20890;SDS011;10605;52.968;8.844;2023-09-08T05:14:25;11.48;;;10.30;;
20890;SDS011;10605;52.968;8.844;2023-09-08T05:17:01;16.50;;;10.65;;
20890;SDS011;10605;52.968;8.844;2023-09-08T05:19:33;12.15;;;10.95;;
20890;SDS011;10605;52.968;8.844;2023-09-08T05:22:17;12.70;;;9.73;;
20890;SDS011;10605;52.968;8.844;2023-09-08T05:25:23;11.50;;;10.45;;
20890;SDS011;10605;52.968;8.844;2023-09-08T05:38:49;9.90;;;8.50;;
20890;SDS011;10605;52.968;8.844;2023-09-08T05:45:44;9.88;;;8.85;;
20890;SDS011;10605;52.968;8.844;2023-09-08T05:49:27;9.38;;;7.68;;
20890;SDS011;10605;52.968;8.844;2023-09-08T05:53:05;11.75;;;8.48;;
20890;SDS011;10605;52.968;8.844;2023-09-08T06:10:35;8.68;;;7.78;;
20890;SDS011;10605;52.968;8.844;2023-09-08T06:25:01;9.38;;;8.10;;
20890;SDS011;10605;52.968;8.844;2023-09-08T06:27:37;9.15;;;8.20;;
20890;SDS011;10605;52.968;8.844;2023-09-08T06:30:34;9.02;;;7.47;;
20890;SDS011;10605;52.968;8.844;2023-09-08T06:33:35;12.93;;;7.22;;
20890;SDS011;10605;52.968;8.844;2023-09-08T06:36:40;8.43;;;6.90;;
20890;SDS011;10605;52.968;8.844;2023-09-08T06:39:28;8.63;;;7.00;;
20890;SDS011;10605;52.968;8.844;2023-09-08T06:42:06;7.72;;;7.03;;
20890;SDS011;10605;52.968;8.844;2023-09-08T06:44:44;7.60;;;6.80;;
20890;SDS011;10605;52.968;8.844;2023-09-08T06:48:07;9.20;;;6.72;;
20890;SDS011;10605;52.968;8.844;2023-09-08T06:51:30;7.40;;;6.80;;
20890;SDS011;10605;52.968;8.844;2023-09-08T06:54:23;10.27;;;6.43;;
20890;SDS011;10605;52.968;8.844;2023-09-08T06:57:41;9.00;;;6.35;;
20890;SDS011;10605;52.968;8.844;2023-09-08T07:01:05;8.27;;;6.45;;
20890;SDS011;10605;52.968;8.844;2023-09-08T07:03:52;8.02;;;7.10;;
20890;SDS011;10605;52.968;8.844;2023-09-08T07:06:34;9.60;;;6.80;;
20890;SDS011;10605;52.968;8.844;2023-09-08T07:09:12;9.82;;;7.00;;
20890;SDS011;10605;52.968;8.844;2023-09-08T07:12:40;6.70;;;6.10;;
20890;SDS011;10605;52.968;8.844;2023-09-08T07:15:09;6.40;;;5.80;;
20890;SDS011;10605;52.968;8.844;2023-09-08T07:17:36;6.60;;;5.85;;
20890;SDS011;10605;52.968;8.844;2023-09-08T07:20:18;6.88;;;5.80;;
20890;SDS011;10605;52.968;8.844;2023-09-08T07:22:51;8.63;;;6.68;;
20890;SDS011;10605;52.968;8.844;2023-09-08T07:25:18;9.07;;;5.25;;
20890;SDS011;10605;52.968;8.844;2023-09-08T07:27:50;8.20;;;5.97;;
20890;SDS011;10605;52.968;8.844;2023-09-08T07:30:18;6.50;;;5.57;;
20890;SDS011;10605;52.968;8.844;2023-09-08T07:32:51;7.70;;;5.30;;
20890;SDS011;10605;52.968;8.844;2023-09-08T07:42:04;6.25;;;5.63;;
20890;SDS011;10605;52.968;8.844;2023-09-08T07:52:33;5.85;;;5.18;;
20890;SDS011;10605;52.968;8.844;2023-09-08T07:55:23;5.15;;;4.68;;
20890;SDS011;10605;52.968;8.844;2023-09-08T07:58:32;8.65;;;5.35;;
20890;SDS011;10605;52.968;8.844;2023-09-08T08:01:38;6.10;;;5.40;;
20890;SDS011;10605;52.968;8.844;2023-09-08T08:05:02;6.10;;;5.28;;
20890;SDS011;10605;52.968;8.844;2023-09-08T08:07:54;9.38;;;4.80;;
20890;SDS011;10605;52.968;8.844;2023-09-08T08:14:31;7.97;;;5.18;;
20890;SDS011;10605;52.968;8.844;2023-09-08T08:17:01;5.40;;;4.93;;
20890;SDS011;10605;52.968;8.844;2023-09-08T08:23:31;7.47;;;4.88;;
20890;SDS011;10605;52.968;8.844;2023-09-08T08:26:07;5.90;;;4.72;;
20890;SDS011;10605;52.968;8.844;2023-09-08T08:28:33;7.00;;;4.97;;
20890;SDS011;10605;52.968;8.844;2023-09-08T08:30:59;8.70;;;4.53;;
20890;SDS011;10605;52.968;8.844;2023-09-08T08:33:25;5.78;;;5.25;;
20890;SDS011;10605;52.968;8.844;2023-09-08T08:35:53;6.18;;;4.38;;
20890;SDS011;10605;52.968;8.844;2023-09-08T08:38:19;8.55;;;4.28;;
20890;SDS011;10605;52.968;8.844;2023-09-08T08:40:45;5.85;;;4.82;;
20890;SDS011;10605;52.968;8.844;2023-09-08T08:43:11;4.95;;;4.55;;
20890;SDS011;10605;52.968;8.844;2023-09-08T08:45:37;4.80;;;4.43;;
20890;SDS011;10605;52.968;8.844;2023-09-08T08:48:05;5.70;;;4.50;;
20890;SDS011;10605;52.968;8.844;2023-09-08T08:50:32;5.35;;;4.07;;
20890;SDS011;10605;52.968;8.844;2023-09-08T08:53:00;5.45;;;4.47;;
20890;SDS011;10605;52.968;8.844;2023-09-08T08:55:27;6.32;;;4.90;;
20890;SDS011;10605;52.968;8.844;2023-09-08T08:57:57;5.13;;;4.53;;
20890;SDS011;10605;52.968;8.844;2023-09-08T09:00:29;4.22;;;3.90;;
20890;SDS011;10605;52.968;8.844;2023-09-08T09:02:55;5.60;;;4.00;;
20890;SDS011;10605;52.968;8.844;2023-09-08T09:05:23;4.47;;;4.07;;
20890;SDS011;10605;52.968;8.844;2023-09-08T09:07:50;4.68;;;4.00;;
20890;SDS011;10605;52.968;8.844;2023-09-08T09:10:16;6.50;;;4.30;;
20890;SDS011;10605;52.968;8.844;2023-09-08T09:12:43;6.05;;;4.30;;
20890;SDS011;10605;52.968;8.844;2023-09-08T09:15:09;6.32;;;4.38;;
20890;SDS011;10605;52.968;8.844;2023-09-08T09:17:36;5.10;;;4.32;;
20890;SDS011;10605;52.968;8.844;2023-09-08T09:22:57;8.77;;;4.13;;
20890;SDS011;10605;52.968;8.844;2023-09-08T09:25:25;5.35;;;4.25;;
20890;SDS011;10605;52.968;8.844;2023-09-08T09:27:54;6.35;;;3.65;;
20890;SDS011;10605;52.968;8.844;2023-09-08T09:30:21;11.38;;;4.07;;
20890;SDS011;10605;52.968;8.844;2023-09-08T09:32:59;4.20;;;3.85;;
20890;SDS011;10605;52.968;8.844;2023-09-08T09:35:42;6.47;;;4.20;;
20890;SDS011;10605;52.968;8.844;2023-09-08T09:38:09;7.60;;;4.05;;
20890;SDS011;10605;52.968;8.844;2023-09-08T09:40:35;5.85;;;3.80;;
20890;SDS011;10605;52.968;8.844;2023-09-08T09:43:01;5.72;;;3.65;;
20890;SDS011;10605;52.968;8.844;2023-09-08T09:45:30;4.18;;;3.55;;
20890;SDS011;10605;52.968;8.844;2023-09-08T09:47:59;4.30;;;3.92;;
20890;SDS011;10605;52.968;8.844;2023-09-08T09:50:29;10.63;;;4.00;;
20890;SDS011;10605;52.968;8.844;2023-09-08T09:53:12;6.32;;;3.60;;
20890;SDS011;10605;52.968;8.844;2023-09-08T09:55:41;3.78;;;3.58;;
20890;SDS011;10605;52.968;8.844;2023-09-08T09:58:08;5.18;;;3.17;;
20890;SDS011;10605;52.968;8.844;2023-09-08T10:00:35;4.07;;;3.05;;
20890;SDS011;10605;52.968;8.844;2023-09-08T10:03:03;3.42;;;3.17;;
20890;SDS011;10605;52.968;8.844;2023-09-08T10:05:29;5.93;;;3.58;;
20890;SDS011;10605;52.968;8.844;2023-09-08T10:07:55;3.83;;;3.53;;
20890;SDS011;10605;52.968;8.844;2023-09-08T10:10:24;8.50;;;3.65;;
20890;SDS011;10605;52.968;8.844;2023-09-08T10:12:52;3.22;;;2.95;;
20890;SDS011;10605;52.968;8.844;2023-09-08T10:15:31;4.18;;;3.33;;
20890;SDS011;10605;52.968;8.844;2023-09-08T10:18:03;8.07;;;3.40;;
20890;SDS011;10605;52.968;8.844;2023-09-08T10:20:30;3.47;;;2.95;;
20890;SDS011;10605;52.968;8.844;2023-09-08T10:23:07;6.68;;;3.63;;
20890;SDS011;10605;52.968;8.844;2023-09-08T10:25:43;3.40;;;3.10;;
20890;SDS011;10605;52.968;8.844;2023-09-08T10:28:18;4.15;;;3.63;;
20890;SDS011;10605;52.968;8.844;2023-09-08T10:30:44;5.07;;;3.25;;
20890;SDS011;10605;52.968;8.844;2023-09-08T10:33:11;6.70;;;3.35;;
20890;SDS011;10605;52.968;8.844;2023-09-08T10:35:38;5.30;;;3.20;;
20890;SDS011;10605;52.968;8.844;2023-09-08T10:40:51;5.07;;;3.17;;
20890;SDS011;10605;52.968;8.844;2023-09-08T10:43:18;3.67;;;3.38;;
20890;SDS011;10605;52.968;8.844;2023-09-08T10:45:45;6.82;;;3.00;;
20890;SDS011;10605;52.968;8.844;2023-09-08T10:48:12;4.90;;;2.90;;
20890;SDS011;10605;52.968;8.844;2023-09-08T10:50:40;7.45;;;2.70;;
20890;SDS011;10605;52.968;8.844;2023-09-08T10:53:18;5.22;;;3.40;;
20890;SDS011;10605;52.968;8.844;2023-09-08T10:58:31;3.58;;;3.28;;
20890;SDS011;10605;52.968;8.844;2023-09-08T11:01:00;2.80;;;2.60;;
20890;SDS011;10605;52.968;8.844;2023-09-08T11:06:04;3.75;;;3.10;;
20890;SDS011;10605;52.968;8.844;2023-09-08T11:08:36;5.30;;;3.20;;
20890;SDS011;10605;52.968;8.844;2023-09-08T11:11:06;5.03;;;2.83;;
20890;SDS011;10605;52.968;8.844;2023-09-08T11:13:36;3.35;;;3.05;;
20890;SDS011;10605;52.968;8.844;2023-09-08T11:16:06;7.00;;;3.38;;
20890;SDS011;10605;52.968;8.844;2023-09-08T11:18:36;5.90;;;3.10;;
20890;SDS011;10605;52.968;8.844;2023-09-08T11:21:04;3.25;;;3.05;;
20890;SDS011;10605;52.968;8.844;2023-09-08T11:23:35;3.50;;;3.20;;
20890;SDS011;10605;52.968;8.844;2023-09-08T11:26:02;6.63;;;3.15;;
20890;SDS011;10605;52.968;8.844;2023-09-08T11:28:28;4.25;;;3.00;;
20890;SDS011;10605;52.968;8.844;2023-09-08T11:30:54;4.18;;;2.80;;
20890;SDS011;10605;52.968;8.844;2023-09-08T11:33:21;3.38;;;2.72;;
20890;SDS011;10605;52.968;8.844;2023-09-08T11:35:53;7.72;;;3.28;;
20890;SDS011;10605;52.968;8.844;2023-09-08T11:38:28;3.25;;;2.92;;
20890;SDS011;10605;52.968;8.844;2023-09-08T11:40:57;4.88;;;2.90;;
20890;SDS011;10605;52.968;8.844;2023-09-08T11:43:23;6.97;;;2.95;;
20890;SDS011;10605;52.968;8.844;2023-09-08T11:45:51;3.42;;;3.13;;
20890;SDS011;10605;52.968;8.844;2023-09-08T11:48:17;3.30;;;3.08;;
20890;SDS011;10605;52.968;8.844;2023-09-08T11:50:44;6.75;;;3.25;;
20890;SDS011;10605;52.968;8.844;2023-09-08T11:53:10;4.53;;;3.22;;
20890;SDS011;10605;52.968;8.844;2023-09-08T11:55:39;4.90;;;2.97;;
20890;SDS011;10605;52.968;8.844;2023-09-08T11:58:14;7.55;;;3.53;;
20890;SDS011;10605;52.968;8.844;2023-09-08T12:00:42;3.35;;;2.90;;
20890;SDS011;10605;52.968;8.844;2023-09-08T12:03:13;3.95;;;2.92;;
20890;SDS011;10605;52.968;8.844;2023-09-08T12:05:41;3.38;;;3.08;;
20890;SDS011;10605;52.968;8.844;2023-09-08T12:08:09;3.30;;;3.00;;
20890;SDS011;10605;52.968;8.844;2023-09-08T12:10:38;5.15;;;3.30;;
20890;SDS011;10605;52.968;8.844;2023-09-08T12:13:06;3.53;;;2.88;;
20890;SDS011;10605;52.968;8.844;2023-09-08T12:18:03;3.45;;;3.00;;
20890;SDS011;10605;52.968;8.844;2023-09-08T12:20:34;4.15;;;3.30;;
20890;SDS011;10605;52.968;8.844;2023-09-08T12:23:19;3.28;;;3.00;;
20890;SDS011;10605;52.968;8.844;2023-09-08T12:25:52;5.70;;;3.03;;
20890;SDS011;10605;52.968;8.844;2023-09-08T12:28:21;4.55;;;2.97;;
20890;SDS011;10605;52.968;8.844;2023-09-08T12:30:48;4.32;;;3.08;;
20890;SDS011;10605;52.968;8.844;2023-09-08T12:33:19;3.95;;;2.85;;
20890;SDS011;10605;52.968;8.844;2023-09-08T12:35:49;2.85;;;2.65;;
20890;SDS011;10605;52.968;8.844;2023-09-08T12:38:21;7.65;;;2.80;;
20890;SDS011;10605;52.968;8.844;2023-09-08T12:40:50;4.90;;;2.85;;
20890;SDS011;10605;52.968;8.844;2023-09-08T12:43:15;3.60;;;3.30;;
20890;SDS011;10605;52.968;8.844;2023-09-08T12:45:41;3.90;;;2.78;;
20890;SDS011;10605;52.968;8.844;2023-09-08T12:48:07;2.45;;;2.35;;
20890;SDS011;10605;52.968;8.844;2023-09-08T12:50:33;4.47;;;2.75;;
20890;SDS011;10605;52.968;8.844;2023-09-08T12:52:59;3.00;;;2.80;;
20890;SDS011;10605;52.968;8.844;2023-09-08T12:55:25;3.92;;;2.78;;
20890;SDS011;10605;52.968;8.844;2023-09-08T12:57:51;2.88;;;2.60;;
20890;SDS011;10605;52.968;8.844;2023-09-08T13:00:22;5.40;;;2.95;;
20890;SDS011;10605;52.968;8.844;2023-09-08T13:02:50;5.32;;;2.70;;
20890;SDS011;10605;52.968;8.844;2023-09-08T13:05:16;4.78;;;3.00;;
20890;SDS011;10605;52.968;8.844;2023-09-08T13:07:42;3.58;;;2.50;;
20890;SDS011;10605;52.968;8.844;2023-09-08T13:10:08;4.88;;;2.88;;
20890;SDS011;10605;52.968;8.844;2023-09-08T13:12:33;5.35;;;2.60;;
20890;SDS011;10605;52.968;8.844;2023-09-08T13:14:59;3.40;;;3.10;;
20890;SDS011;10605;52.968;8.844;2023-09-08T13:17:25;3.22;;;2.92;;
20890;SDS011;10605;52.968;8.844;2023-09-08T13:19:51;3.20;;;3.00;;
20890;SDS011;10605;52.968;8.844;2023-09-08T13:22:18;2.92;;;2.72;;
20890;SDS011;10605;52.968;8.844;2023-09-08T13:24:44;5.53;;;3.22;;
20890;SDS011;10605;52.968;8.844;2023-09-08T13:27:09;3.35;;;3.15;;
20890;SDS011;10605;52.968;8.844;2023-09-08T13:29:36;3.30;;;3.05;;
20890;SDS011;10605;52.968;8.844;2023-09-08T13:32:03;5.50;;;2.80;;
20890;SDS011;10605;52.968;8.844;2023-09-08T13:34:30;3.92;;;2.88;;
20890;SDS011;10605;52.968;8.844;2023-09-08T13:36:57;4.60;;;3.15;;
20890;SDS011;10605;52.968;8.844;2023-09-08T13:39:23;3.35;;;3.15;;
20890;SDS011;10605;52.968;8.844;2023-09-08T13:41:50;4.00;;;3.08;;
20890;SDS011;10605;52.968;8.844;2023-09-08T13:44:18;4.18;;;2.90;;
20890;SDS011;10605;52.968;8.844;2023-09-08T13:46:45;3.50;;;3.20;;
20890;SDS011;10605;52.968;8.844;2023-09-08T13:49:11;12.93;;;3.05;;
20890;SDS011;10605;52.968;8.844;2023-09-08T13:51:37;3.30;;;2.92;;
20890;SDS011;10605;52.968;8.844;2023-09-08T13:54:03;3.63;;;3.33;;
20890;SDS011;10605;52.968;8.844;2023-09-08T13:56:57;3.83;;;3.17;;
20890;SDS011;10605;52.968;8.844;2023-09-08T13:59:25;2.88;;;2.58;;
20890;SDS011;10605;52.968;8.844;2023-09-08T14:01:54;5.63;;;2.83;;
20890;SDS011;10605;52.968;8.844;2023-09-08T14:07:16;3.60;;;2.80;;
20890;SDS011;10605;52.968;8.844;2023-09-08T14:09:41;3.30;;;3.10;;
20890;SDS011;10605;52.968;8.844;2023-09-08T14:12:07;2.60;;;2.40;;
20890;SDS011;10605;52.968;8.844;2023-09-08T14:14:34;7.28;;;3.70;;
20890;SDS011;10605;52.968;8.844;2023-09-08T14:17:05;3.20;;;3.00;;
20890;SDS011;10605;52.968;8.844;2023-09-08T14:19:31;3.10;;;2.80;;
20890;SDS011;10605;52.968;8.844;2023-09-08T14:22:00;3.92;;;2.88;;
20890;SDS011;10605;52.968;8.844;2023-09-08T14:24:29;3.47;;;3.10;;
20890;SDS011;10605;52.968;8.844;2023-09-08T14:27:04;4.88;;;3.20;;
20890;SDS011;10605;52.968;8.844;2023-09-08T14:29:35;6.72;;;2.95;;
20890;SDS011;10605;52.968;8.844;2023-09-08T14:32:14;3.38;;;3.17;;
20890;SDS011;10605;52.968;8.844;2023-09-08T14:34:48;3.20;;;2.97;;
20890;SDS011;10605;52.968;8.844;2023-09-08T14:37:15;4.20;;;2.92;;
20890;SDS011;10605;52.968;8.844;2023-09-08T14:39:50;5.07;;;3.45;;
20890;SDS011;10605;52.968;8.844;2023-09-08T14:42:24;3.65;;;3.33;;
20890;SDS011;10605;52.968;8.844;2023-09-08T14:44:50;4.65;;;3.33;;
20890;SDS011;10605;52.968;8.844;2023-09-08T14:47:17;3.63;;;3.05;;
20890;SDS011;10605;52.968;8.844;2023-09-08T14:49:44;15.73;;;3.38;;
20890;SDS011;10605;52.968;8.844;2023-09-08T14:52:10;3.40;;;2.95;;
20890;SDS011;10605;52.968;8.844;2023-09-08T14:54:58;3.70;;;3.50;;
20890;SDS011;10605;52.968;8.844;2023-09-08T14:57:25;3.70;;;3.17;;
20890;SDS011;10605;52.968;8.844;2023-09-08T14:59:52;3.38;;;3.17;;
20890;SDS011;10605;52.968;8.844;2023-09-08T15:02:21;4.80;;;3.55;;
20890;SDS011;10605;52.968;8.844;2023-09-08T15:04:49;4.15;;;3.15;;
20890;SDS011;10605;52.968;8.844;2023-09-08T15:07:15;6.25;;;3.10;;
20890;SDS011;10605;52.968;8.844;2023-09-08T15:09:42;3.25;;;3.05;;
20890;SDS011;10605;52.968;8.844;2023-09-08T15:12:29;3.42;;;3.13;;
20890;SDS011;10605;52.968;8.844;2023-09-08T15:21:48;3.30;;;3.00;;
20890;SDS011;10605;52.968;8.844;2023-09-08T15:38:36;3.80;;;3.50;;
20890;SDS011;10605;52.968;8.844;2023-09-08T15:41:17;4.50;;;3.28;;
20890;SDS011;10605;52.968;8.844;2023-09-08T15:44:31;6.93;;;3.60;;
20890;SDS011;10605;52.968;8.844;2023-09-08T15:48:06;7.63;;;3.55;;
20890;SDS011;10605;52.968;8.844;2023-09-08T15:51:18;7.57;;;3.10;;
20890;SDS011;10605;52.968;8.844;2023-09-08T15:53:54;3.95;;;3.58;;
20890;SDS011;10605;52.968;8.844;2023-09-08T15:57:04;4.03;;;3.22;;
20890;SDS011;10605;52.968;8.844;2023-09-08T15:59:35;5.43;;;3.20;;
20890;SDS011;10605;52.968;8.844;2023-09-08T16:02:18;7.20;;;3.80;;
20890;SDS011;10605;52.968;8.844;2023-09-08T16:05:08;5.60;;;3.20;;
20890;SDS011;10605;52.968;8.844;2023-09-08T16:08:50;5.57;;;3.60;;
20890;SDS011;10605;52.968;8.844;2023-09-08T16:29:23;3.78;;;3.47;;
20890;SDS011;10605;52.968;8.844;2023-09-08T16:36:06;5.97;;;3.10;;
20890;SDS011;10605;52.968;8.844;2023-09-08T16:55:22;5.15;;;3.53;;
20890;SDS011;10605;52.968;8.844;2023-09-08T17:02:27;3.78;;;3.50;;
20890;SDS011;10605;52.968;8.844;2023-09-08T17:16:03;4.25;;;3.22;;
20890;SDS011;10605;52.968;8.844;2023-09-08T17:23:04;4.70;;;3.80;;
20890;SDS011;10605;52.968;8.844;2023-09-08T17:26:04;4.68;;;3.28;;
20890;SDS011;10605;52.968;8.844;2023-09-08T17:38:53;5.18;;;3.30;;
20890;SDS011;10605;52.968;8.844;2023-09-08T17:42:18;5.63;;;3.60;;
20890;SDS011;10605;52.968;8.844;2023-09-08T17:48:31;5.72;;;3.50;;
20890;SDS011;10605;52.968;8.844;2023-09-08T17:50:59;6.95;;;3.90;;
20890;SDS011;10605;52.968;8.844;2023-09-08T17:53:33;2.95;;;2.83;;
20890;SDS011;10605;52.968;8.844;2023-09-08T17:56:02;5.40;;;3.88;;
20890;SDS011;10605;52.968;8.844;2023-09-08T17:58:33;5.47;;;3.63;;
20890;SDS011;10605;52.968;8.844;2023-09-08T18:01:37;3.90;;;3.58;;
20890;SDS011;10605;52.968;8.844;2023-09-08T18:04:28;4.30;;;4.00;;
20890;SDS011;10605;52.968;8.844;2023-09-08T18:07:59;5.78;;;4.63;;
20890;SDS011;10605;52.968;8.844;2023-09-08T18:14:25;6.70;;;4.68;;
20890;SDS011;10605;52.968;8.844;2023-09-08T18:20:26;10.85;;;4.50;;
20890;SDS011;10605;52.968;8.844;2023-09-08T18:23:33;15.10;;;4.70;;